Time,TemperatureF,DewpointF,PressureIn,WindDirection,WindDirectionDegrees,WindSpeedMPH,WindSpeedGustMPH,Humidity,HourlyPrecipIn,Conditions,Clouds,dailyrainin,SolarRadiationWatts/m^2,SoftwareType,DateUTC
2013-05-24 00:01:00,41.0,35.0,-100.00,West,260,9.0,13.0,79,0.00,,,0.00,1.000000,,2013-05-24 07:01:00,
2013-05-24 00:02:00,40.0,36.0,-100.00,South,173,5.0,12.0,85,0.00,,,0.00,1.000000,,2013-05-24 07:02:00,
2013-05-24 00:22:00,40.0,36.0,-100.00,South,173,5.0,12.0,85,0.00,,,0.00,1.000000,,2013-05-24 07:22:00,
2013-05-24 00:32:00,40.0,36.0,-100.00,South,173,5.0,12.0,85,0.00,,,0.00,1.000000,,2013-05-24 07:32:00,
2013-05-24 00:42:00,40.0,36.0,-100.00,South,173,5.0,12.0,85,0.00,,,0.00,1.000000,,2013-05-24 07:42:00,
2013-05-24 00:52:00,40.0,36.0,-100.00,South,173,5.0,12.0,85,0.00,,,0.00,1.000000,,2013-05-24 07:52:00,
2013-05-24 01:22:00,39.0,35.0,-100.00,East,96,2.0,6.0,87,0.00,,,0.00,1.000000,,2013-05-24 08:22:00,
2013-05-24 01:33:00,39.0,35.0,-100.00,East,96,2.0,6.0,87,0.00,,,0.00,1.000000,,2013-05-24 08:33:00,
2013-05-24 01:42:00,39.0,35.0,-100.00,East,96,2.0,6.0,87,0.00,,,0.00,1.000000,,2013-05-24 08:42:00,
2013-05-24 01:52:00,39.0,35.0,-100.00,East,96,2.0,6.0,87,0.00,,,0.00,1.000000,,2013-05-24 08:52:00,
2013-05-24 02:01:00,39.0,35.0,-100.00,East,96,2.0,6.0,87,0.00,,,0.00,1.000000,,2013-05-24 09:01:00,
2013-05-24 02:02:00,38.0,33.0,-100.00,SSE,166,3.0,5.0,82,0.00,,,0.00,1.000000,,2013-05-24 09:02:00,
2013-05-24 02:22:00,38.0,33.0,-100.00,SSE,166,3.0,5.0,82,0.00,,,0.00,1.000000,,2013-05-24 09:22:00,
2013-05-24 02:33:00,38.0,33.0,-100.00,SSE,166,3.0,5.0,82,0.00,,,0.00,1.000000,,2013-05-24 09:33:00,
2013-05-24 02:42:00,38.0,33.0,-100.00,SSE,166,3.0,5.0,82,0.00,,,0.00,1.000000,,2013-05-24 09:42:00,
2013-05-24 02:53:00,38.0,33.0,-100.00,SSE,166,3.0,5.0,82,0.00,,,0.00,1.000000,,2013-05-24 09:53:00,
2013-05-24 03:02:00,41.0,34.0,-100.00,SSE,150,5.0,9.0,76,0.00,,,0.00,1.000000,,2013-05-24 10:02:00,
2013-05-24 03:23:00,41.0,34.0,-100.00,SSE,150,5.0,9.0,76,0.00,,,0.00,1.000000,,2013-05-24 10:23:00,
2013-05-24 03:33:00,41.0,34.0,-100.00,SSE,150,5.0,9.0,76,0.00,,,0.00,1.000000,,2013-05-24 10:33:00,
2013-05-24 03:42:00,41.0,34.0,-100.00,SSE,150,5.0,9.0,76,0.00,,,0.00,1.000000,,2013-05-24 10:42:00,
2013-05-24 03:52:00,41.0,34.0,-100.00,SSE,150,5.0,9.0,76,0.00,,,0.00,1.000000,,2013-05-24 10:52:00,
2013-05-24 04:22:00,40.0,34.0,-100.00,WSW,252,3.0,8.0,80,0.00,,,0.00,1.000000,,2013-05-24 11:22:00,
2013-05-24 04:32:00,40.0,34.0,-100.00,WSW,252,3.0,8.0,80,0.00,,,0.00,1.000000,,2013-05-24 11:32:00,
2013-05-24 04:42:00,40.0,34.0,-100.00,WSW,252,3.0,8.0,80,0.00,,,0.00,1.000000,,2013-05-24 11:42:00,
2013-05-24 04:52:00,40.0,34.0,-100.00,WSW,252,3.0,8.0,80,0.00,,,0.00,1.000000,,2013-05-24 11:52:00,
2013-05-24 05:01:00,40.0,34.0,-100.00,WSW,252,3.0,8.0,80,0.00,,,0.00,1.000000,,2013-05-24 12:01:00,
2013-05-24 05:22:00,40.0,36.0,-100.00,SW,220,1.0,5.0,84,0.00,,,0.00,1.000000,,2013-05-24 12:22:00,
2013-05-24 05:33:00,40.0,36.0,-100.00,SW,220,1.0,5.0,84,0.00,,,0.00,1.000000,,2013-05-24 12:33:00,
2013-05-24 05:42:00,40.0,36.0,-100.00,SW,220,1.0,5.0,84,0.00,,,0.00,1.000000,,2013-05-24 12:42:00,
2013-05-24 05:52:00,40.0,36.0,-100.00,SW,220,1.0,5.0,84,0.00,,,0.00,1.000000,,2013-05-24 12:52:00,
2013-05-24 06:01:00,40.0,36.0,-100.00,SW,220,1.0,5.0,84,0.00,,,0.00,1.000000,,2013-05-24 13:01:00,
2013-05-24 06:22:00,39.0,35.0,-100.00,SW,232,3.0,5.0,87,0.00,,,0.00,4.000000,,2013-05-24 13:22:00,
2013-05-24 06:32:00,39.0,35.0,-100.00,SW,232,3.0,5.0,87,0.00,,,0.00,4.000000,,2013-05-24 13:32:00,
2013-05-24 06:42:00,39.0,35.0,-100.00,SW,232,3.0,5.0,87,0.00,,,0.00,4.000000,,2013-05-24 13:42:00,
2013-05-24 06:52:00,39.0,35.0,-100.00,SW,232,3.0,5.0,87,0.00,,,0.00,4.000000,,2013-05-24 13:52:00,
2013-05-24 07:01:00,39.0,35.0,-100.00,SW,232,3.0,5.0,87,0.00,,,0.00,4.000000,,2013-05-24 14:01:00,
2013-05-24 07:22:00,41.0,36.0,-100.00,West,278,2.0,5.0,83,0.00,,,0.00,41.000000,,2013-05-24 14:22:00,
2013-05-24 07:32:00,41.0,36.0,-100.00,West,278,2.0,5.0,83,0.00,,,0.00,41.000000,,2013-05-24 14:32:00,
2013-05-24 07:42:00,41.0,36.0,-100.00,West,278,2.0,5.0,83,0.00,,,0.00,41.000000,,2013-05-24 14:42:00,
2013-05-24 07:52:00,41.0,36.0,-100.00,West,278,2.0,5.0,83,0.00,,,0.00,41.000000,,2013-05-24 14:52:00,
2013-05-24 08:01:00,41.0,36.0,-100.00,West,278,2.0,5.0,83,0.00,,,0.00,41.000000,,2013-05-24 15:01:00,
2013-05-24 08:02:00,44.0,33.0,-100.00,SW,236,9.0,13.0,65,0.00,,,0.00,189.000000,,2013-05-24 15:02:00,
2013-05-24 08:22:00,44.0,33.0,-100.00,SW,236,9.0,13.0,65,0.00,,,0.00,189.000000,,2013-05-24 15:22:00,
2013-05-24 08:33:00,44.0,33.0,-100.00,SW,236,9.0,13.0,65,0.00,,,0.00,189.000000,,2013-05-24 15:33:00,
2013-05-24 08:43:00,44.0,33.0,-100.00,SW,236,9.0,13.0,65,0.00,,,0.00,189.000000,,2013-05-24 15:43:00,
2013-05-24 08:52:00,44.0,33.0,-100.00,SW,236,9.0,13.0,65,0.00,,,0.00,189.000000,,2013-05-24 15:52:00,
2013-05-24 09:22:00,48.0,33.0,-100.00,SW,231,12.0,19.0,55,0.00,,,0.00,516.000000,,2013-05-24 16:22:00,
2013-05-24 09:32:00,48.0,33.0,-100.00,SW,231,12.0,19.0,55,0.00,,,0.00,516.000000,,2013-05-24 16:32:00,
2013-05-24 09:42:00,48.0,33.0,-100.00,SW,231,12.0,19.0,55,0.00,,,0.00,516.000000,,2013-05-24 16:42:00,
2013-05-24 09:52:00,48.0,33.0,-100.00,SW,231,12.0,19.0,55,0.00,,,0.00,516.000000,,2013-05-24 16:52:00,
2013-05-24 10:01:00,48.0,33.0,-100.00,SW,231,12.0,19.0,55,0.00,,,0.00,516.000000,,2013-05-24 17:01:00,
2013-05-24 10:22:00,51.0,30.0,-100.00,WSW,250,15.0,21.0,44,0.00,,,-99.99,590.000000,,2013-05-24 17:22:00,
2013-05-24 10:32:00,51.0,30.0,-100.00,WSW,250,15.0,21.0,44,0.00,,,-99.99,590.000000,,2013-05-24 17:32:00,
2013-05-24 10:42:00,51.0,30.0,-100.00,WSW,250,15.0,21.0,44,0.00,,,-99.99,590.000000,,2013-05-24 17:42:00,
2013-05-24 10:52:00,51.0,30.0,-100.00,WSW,250,15.0,21.0,44,0.00,,,-99.99,590.000000,,2013-05-24 17:52:00,
2013-05-24 11:01:00,51.0,30.0,-100.00,WSW,250,15.0,21.0,44,0.00,,,-99.99,590.000000,,2013-05-24 18:01:00,
2013-05-24 11:22:00,52.0,30.0,-100.00,West,266,12.0,21.0,43,0.00,,,0.00,655.000000,,2013-05-24 18:22:00,
2013-05-24 11:32:00,52.0,30.0,-100.00,West,266,12.0,21.0,43,0.00,,,0.00,655.000000,,2013-05-24 18:32:00,
2013-05-24 11:42:00,52.0,30.0,-100.00,West,266,12.0,21.0,43,0.00,,,0.00,655.000000,,2013-05-24 18:42:00,
2013-05-24 11:52:00,52.0,30.0,-100.00,West,266,12.0,21.0,43,0.00,,,0.00,655.000000,,2013-05-24 18:52:00,
2013-05-24 12:01:00,52.0,30.0,-100.00,West,266,12.0,21.0,43,0.00,,,0.00,655.000000,,2013-05-24 19:01:00,
2013-05-24 12:21:00,54.0,28.0,-100.00,West,266,11.0,19.0,36,0.00,,,0.00,924.000000,,2013-05-24 19:21:00,
2013-05-24 12:32:00,54.0,28.0,-100.00,West,266,11.0,19.0,36,0.00,,,0.00,924.000000,,2013-05-24 19:32:00,
2013-05-24 12:42:00,54.0,28.0,-100.00,West,266,11.0,19.0,36,0.00,,,0.00,924.000000,,2013-05-24 19:42:00,
2013-05-24 12:52:00,54.0,28.0,-100.00,West,266,11.0,19.0,36,0.00,,,0.00,924.000000,,2013-05-24 19:52:00,
2013-05-24 13:01:00,54.0,28.0,-100.00,West,266,11.0,19.0,36,0.00,,,0.00,924.000000,,2013-05-24 20:01:00,
2013-05-24 13:22:00,54.0,28.0,-100.00,West,268,15.0,25.0,36,0.00,,,0.00,1017.000000,,2013-05-24 20:22:00,
2013-05-24 13:32:00,54.0,28.0,-100.00,West,268,15.0,25.0,36,0.00,,,0.00,1017.000000,,2013-05-24 20:32:00,
2013-05-24 13:42:00,54.0,28.0,-100.00,West,268,15.0,25.0,36,0.00,,,0.00,1017.000000,,2013-05-24 20:42:00,
2013-05-24 13:52:00,54.0,28.0,-100.00,West,268,15.0,25.0,36,0.00,,,0.00,1017.000000,,2013-05-24 20:52:00,
2013-05-24 14:01:00,54.0,28.0,-100.00,West,268,15.0,25.0,36,0.00,,,0.00,1017.000000,,2013-05-24 21:01:00,
2013-05-24 14:02:00,56.0,28.0,-100.00,WNW,287,10.0,20.0,34,0.00,,,0.00,980.000000,,2013-05-24 21:02:00,
2013-05-24 14:22:00,56.0,28.0,-100.00,WNW,287,10.0,20.0,34,0.00,,,0.00,980.000000,,2013-05-24 21:22:00,
2013-05-24 14:33:00,56.0,28.0,-100.00,WNW,287,10.0,20.0,34,0.00,,,0.00,980.000000,,2013-05-24 21:33:00,
2013-05-24 14:43:00,56.0,28.0,-100.00,WNW,287,10.0,20.0,34,0.00,,,0.00,980.000000,,2013-05-24 21:43:00,
2013-05-24 14:53:00,56.0,28.0,-100.00,WNW,287,10.0,20.0,34,0.00,,,0.00,980.000000,,2013-05-24 21:53:00,
2013-05-24 15:02:00,58.0,28.0,-100.00,WNW,300,9.0,18.0,31,0.00,,,0.00,984.000000,,2013-05-24 22:02:00,
2013-05-24 15:22:00,58.0,28.0,-100.00,WNW,300,9.0,18.0,31,0.00,,,0.00,984.000000,,2013-05-24 22:22:00,
2013-05-24 15:33:00,58.0,28.0,-100.00,WNW,300,9.0,18.0,31,0.00,,,0.00,984.000000,,2013-05-24 22:33:00,
2013-05-24 15:42:00,58.0,28.0,-100.00,WNW,300,9.0,18.0,31,0.00,,,0.00,984.000000,,2013-05-24 22:42:00,
2013-05-24 15:52:00,58.0,28.0,-100.00,WNW,300,9.0,18.0,31,0.00,,,0.00,984.000000,,2013-05-24 22:52:00,
2013-05-24 16:22:00,59.0,27.0,-100.00,WNW,297,9.0,20.0,29,0.00,,,0.00,858.000000,,2013-05-24 23:22:00,
2013-05-24 16:32:00,59.0,27.0,-100.00,WNW,297,9.0,20.0,29,0.00,,,0.00,858.000000,,2013-05-24 23:32:00,
2013-05-24 16:42:00,59.0,27.0,-100.00,WNW,297,9.0,20.0,29,0.00,,,0.00,858.000000,,2013-05-24 23:42:00,
2013-05-24 16:52:00,59.0,27.0,-100.00,WNW,297,9.0,20.0,29,0.00,,,0.00,858.000000,,2013-05-24 23:52:00,
2013-05-24 17:01:00,59.0,27.0,-100.00,WNW,297,9.0,20.0,29,0.00,,,0.00,858.000000,,2013-05-25 00:01:00,
2013-05-24 17:22:00,58.0,28.0,-100.00,NW,306,6.0,15.0,31,0.00,,,-99.99,728.000000,,2013-05-25 00:22:00,
2013-05-24 17:32:00,58.0,28.0,-100.00,NW,306,6.0,15.0,31,0.00,,,-99.99,728.000000,,2013-05-25 00:32:00,
2013-05-24 17:42:00,58.0,28.0,-100.00,NW,306,6.0,15.0,31,0.00,,,-99.99,728.000000,,2013-05-25 00:42:00,
2013-05-24 17:52:00,58.0,28.0,-100.00,NW,306,6.0,15.0,31,0.00,,,-99.99,728.000000,,2013-05-25 00:52:00,
2013-05-24 18:01:00,58.0,28.0,-100.00,NW,306,6.0,15.0,31,0.00,,,-99.99,728.000000,,2013-05-25 01:01:00,
2013-05-24 18:22:00,58.0,28.0,-100.00,WNW,300,8.0,16.0,32,0.00,,,0.00,583.000000,,2013-05-25 01:22:00,
2013-05-24 18:32:00,58.0,28.0,-100.00,WNW,300,8.0,16.0,32,0.00,,,0.00,583.000000,,2013-05-25 01:32:00,
2013-05-24 18:42:00,58.0,28.0,-100.00,WNW,300,8.0,16.0,32,0.00,,,0.00,583.000000,,2013-05-25 01:42:00,
2013-05-24 18:52:00,58.0,28.0,-100.00,WNW,300,8.0,16.0,32,0.00,,,0.00,583.000000,,2013-05-25 01:52:00,
2013-05-24 19:01:00,58.0,28.0,-100.00,WNW,300,8.0,16.0,32,0.00,,,0.00,583.000000,,2013-05-25 02:01:00,
2013-05-24 19:22:00,56.0,30.0,-100.00,WNW,291,8.0,15.0,37,0.00,,,0.00,386.000000,,2013-05-25 02:22:00,
2013-05-24 19:32:00,56.0,30.0,-100.00,WNW,291,8.0,15.0,37,0.00,,,0.00,386.000000,,2013-05-25 02:32:00,
2013-05-24 19:42:00,56.0,30.0,-100.00,WNW,291,8.0,15.0,37,0.00,,,0.00,386.000000,,2013-05-25 02:42:00,
2013-05-24 19:52:00,56.0,30.0,-100.00,WNW,291,8.0,15.0,37,0.00,,,0.00,386.000000,,2013-05-25 02:52:00,
2013-05-24 20:01:00,56.0,30.0,-100.00,WNW,291,8.0,15.0,37,0.00,,,0.00,386.000000,,2013-05-25 03:01:00,
2013-05-24 20:02:00,51.0,31.0,-100.00,West,280,8.0,18.0,46,0.00,,,0.00,172.000000,,2013-05-25 03:02:00,
2013-05-24 20:22:00,51.0,31.0,-100.00,West,280,8.0,18.0,46,0.00,,,0.00,172.000000,,2013-05-25 03:22:00,
2013-05-24 20:33:00,51.0,31.0,-100.00,West,280,8.0,18.0,46,0.00,,,0.00,172.000000,,2013-05-25 03:33:00,
2013-05-24 20:43:00,51.0,31.0,-100.00,West,280,8.0,18.0,46,0.00,,,0.00,172.000000,,2013-05-25 03:43:00,
2013-05-24 20:53:00,51.0,31.0,-100.00,West,280,8.0,18.0,46,0.00,,,0.00,172.000000,,2013-05-25 03:53:00,
2013-05-24 21:02:00,46.0,31.0,-100.00,North,2,4.0,9.0,56,0.00,,,0.00,18.000000,,2013-05-25 04:02:00,
2013-05-24 21:23:00,46.0,31.0,-100.00,North,2,4.0,9.0,56,0.00,,,0.00,18.000000,,2013-05-25 04:23:00,
2013-05-24 21:33:00,46.0,31.0,-100.00,North,2,4.0,9.0,56,0.00,,,0.00,18.000000,,2013-05-25 04:33:00,
2013-05-24 21:43:00,46.0,31.0,-100.00,North,2,4.0,9.0,56,0.00,,,0.00,18.000000,,2013-05-25 04:43:00,
2013-05-24 21:52:00,46.0,31.0,-100.00,North,2,4.0,9.0,56,0.00,,,0.00,18.000000,,2013-05-25 04:52:00,
2013-05-24 22:22:00,43.0,30.0,-100.00,NE,46,3.0,7.0,61,0.00,,,0.00,1.000000,,2013-05-25 05:22:00,
2013-05-24 22:32:00,43.0,30.0,-100.00,NE,46,3.0,7.0,61,0.00,,,0.00,1.000000,,2013-05-25 05:32:00,
2013-05-24 22:43:00,43.0,30.0,-100.00,NE,46,3.0,7.0,61,0.00,,,0.00,1.000000,,2013-05-25 05:43:00,
2013-05-24 22:52:00,43.0,30.0,-100.00,NE,46,3.0,7.0,61,0.00,,,0.00,1.000000,,2013-05-25 05:52:00,
2013-05-24 23:01:00,43.0,30.0,-100.00,NE,46,3.0,7.0,61,0.00,,,0.00,1.000000,,2013-05-25 06:01:00,
2013-05-24 23:22:00,43.0,33.0,-100.00,ENE,57,5.0,7.0,67,0.00,,,0.00,1.000000,,2013-05-25 06:22:00,
2013-05-24 23:32:00,43.0,33.0,-100.00,ENE,57,5.0,7.0,67,0.00,,,0.00,1.000000,,2013-05-25 06:32:00,
2013-05-24 23:42:00,43.0,33.0,-100.00,ENE,57,5.0,7.0,67,0.00,,,0.00,1.000000,,2013-05-25 06:42:00,
2013-05-24 23:52:00,43.0,33.0,-100.00,ENE,57,5.0,7.0,67,0.00,,,0.00,1.000000,,2013-05-25 06:52:00,